Terminal Aerodrome Forecast
Issued by NWS

Home | Current Version | Previous Version | Text Only | Print | Product List | Glossary On
Versions: 1 2 3 4 5 6 7 8 9 10 11 12 13 14 15 16 17 18 19 20 21 22
000
FTUS45 KREV 190500
TAFTVL
TAF
KTVL 190520Z 1906/2006 VRB03KT P6SM OVC025
     FM191000 VRB03KT P6SM SCT025 SCT100
     FM191700 04008KT P6SM SCT060 SCT100
     FM200100 VRB03KT P6SM SCT100=

USA.gov is the U.S. government's official web portal to all federal, state and local government web resources and services.